^^
Saratoga-Weather Station Historical Data
Daily Summary for December 27, 2021 Units:  English    Metric   Both
Daily Weekly Monthly Yearly Custom
  High: Low: Average:
Temperature: 48.7 °F 38.8 °F 44.6 °F
Dew Point: 47.3 °F 38.1 °F 43.7 °F
Humidity: 98% 93% 96%
Wind Speed: 4.9mph 0mph 1.1mph
Wind Gust: 10mph - -
Wind- - SE
Pressure: 29.6 in 29.5 in -
Precipitation: 0.25 in    
Historical Graphs
 
 
Tabular Data for December 27, 2021
Time Temperature Dew Point Pressure Wind Wind Speed Wind Gust Humidity Rainfall Rate (Hourly) solar
00:04 39.2 °F 38.5 °F 29.6 in Calm     97% 0.01 in 0 W/m2
00:09 39.2 °F 38.5 °F 29.6 in Calm     97% 0.01 in 0 W/m2
00:14 39 °F 38.3 °F 29.6 in Calm     97% 0.01 in 0 W/m2
00:19 39.2 °F 38.5 °F 29.6 in Calm     97% 0.01 in 0 W/m2
00:24 39 °F 38.3 °F 29.6 in Calm     97% 0.01 in 0 W/m2
00:29 39 °F 38.3 °F 29.6 in Calm     97% 0.01 in 0 W/m2
00:34 39 °F 38.3 °F 29.6 in Calm     97% 0.01 in 0 W/m2
00:39 38.8 °F 38.1 °F 29.6 in Calm     97% 0.01 in 0 W/m2
00:44 38.8 °F 38.1 °F 29.6 in Calm     97% 0.01 in 0 W/m2
00:49 38.8 °F 38.1 °F 29.6 in Calm     97% 0 in 0 W/m2
00:54 38.8 °F 38.1 °F 29.6 in Calm     97% 0 in 0 W/m2
00:59 39 °F 38.3 °F 29.6 in Calm     97% 0 in 0 W/m2
01:04 39 °F 38.3 °F 29.6 in Calm     97% 0 in 0 W/m2
01:09 39 °F 38.3 °F 29.6 in Calm     97% 0 in 0 W/m2
01:15 39 °F 38.3 °F 29.6 in Calm     97% 0 in 0 W/m2
01:20 39 °F 38.3 °F 29.6 in Calm     97% 0 in 0 W/m2
01:25 39 °F 38.3 °F 29.6 in Calm     97% 0 in 0 W/m2
01:30 39 °F 38.3 °F 29.6 in Calm     97% 0 in 0 W/m2
01:35 39.2 °F 38.5 °F 29.6 in Calm     97% 0 in 0 W/m2
01:40 39.4 °F 38.7 °F 29.6 in Calm     97% 0 in 0 W/m2
01:45 39.4 °F 38.7 °F 29.6 in Calm     97% 0.01 in 0 W/m2
01:50 39.4 °F 38.7 °F 29.6 in Calm     97% 0.01 in 0 W/m2
01:55 39.4 °F 38.7 °F 29.6 in Calm     97% 0.02 in 0 W/m2
02:00 39.4 °F 38.7 °F 29.6 in Calm     97% 0.02 in 0 W/m2
02:05 39.6 °F 38.8 °F 29.6 in East 2 mph 2 mph 97% 0.03 in 0 W/m2
02:10 39.6 °F 38.8 °F 29.6 in East 0.9 mph 2 mph 97% 0.04 in 0 W/m2
02:15 39.6 °F 38.8 °F 29.6 in East 0.9 mph 1 mph 97% 0.05 in 0 W/m2
02:20 39.6 °F 38.8 °F 29.6 in Calm   1 mph 97% 0.06 in 0 W/m2
02:25 39.7 °F 39 °F 29.6 in Calm     97% 0.06 in 0 W/m2
02:30 39.7 °F 39 °F 29.6 in Calm   1 mph 97% 0.06 in 0 W/m2
02:35 39.7 °F 39 °F 29.6 in East 0.9 mph 1 mph 97% 0.06 in 0 W/m2
02:40 39.7 °F 39 °F 29.6 in East 0.9 mph 2 mph 97% 0.06 in 0 W/m2
02:45 39.7 °F 39 °F 29.6 in Calm     97% 0.06 in 0 W/m2
02:50 39.7 °F 39 °F 29.6 in Calm   1 mph 97% 0.06 in 0 W/m2
02:55 39.7 °F 39 °F 29.6 in Calm   1 mph 97% 0.05 in 0 W/m2
03:00 39.7 °F 39 °F 29.6 in Calm     97% 0.04 in 0 W/m2
03:05 39.7 °F 39 °F 29.6 in Calm     97% 0.03 in 0 W/m2
03:10 39.7 °F 39 °F 29.6 in Calm     97% 0.02 in 0 W/m2
03:15 39.7 °F 39 °F 29.6 in Calm     97% 0.02 in 0 W/m2
03:20 39.7 °F 39 °F 29.6 in Calm     97% 0 in 0 W/m2
03:25 39.7 °F 39 °F 29.6 in Calm     97% 0 in 0 W/m2
03:30 39.7 °F 39 °F 29.6 in Calm     97% 0 in 0 W/m2
03:35 39.7 °F 39 °F 29.6 in Calm     97% 0.01 in 0 W/m2
03:40 39.7 °F 39 °F 29.6 in Calm     97% 0.01 in 0 W/m2
03:45 39.7 °F 39 °F 29.6 in Calm     97% 0.01 in 0 W/m2
03:50 39.7 °F 39 °F 29.6 in Calm     97% 0.01 in 0 W/m2
03:55 39.9 °F 39.2 °F 29.6 in Calm     97% 0.01 in 0 W/m2
04:00 39.9 °F 39.2 °F 29.6 in Calm     97% 0.01 in 0 W/m2
04:05 40.1 °F 39.4 °F 29.6 in Calm     97% 0.02 in 0 W/m2
04:10 40.1 °F 39.4 °F 29.6 in Calm     97% 0.02 in 0 W/m2
04:15 40.3 °F 39.6 °F 29.6 in Calm     97% 0.03 in 0 W/m2
04:20 40.3 °F 39.6 °F 29.6 in Calm     97% 0.03 in 0 W/m2
04:25 40.3 °F 39.6 °F 29.6 in Calm     97% 0.04 in 0 W/m2
04:30 40.3 °F 39.6 °F 29.6 in Calm     97% 0.05 in 0 W/m2
04:35 40.3 °F 39.6 °F 29.6 in Calm     97% 0.06 in 0 W/m2
04:40 40.3 °F 39.6 °F 29.6 in Calm     97% 0.06 in 0 W/m2
04:45 40.5 °F 39.9 °F 29.6 in Calm     98% 0.06 in 0 W/m2
04:50 40.5 °F 39.9 °F 29.6 in East 0.9 mph 2 mph 98% 0.06 in 0 W/m2
04:55 40.5 °F 39.9 °F 29.6 in Calm   1 mph 98% 0.06 in 0 W/m2
05:00 40.6 °F 39.9 °F 29.6 in Calm   1 mph 97% 0.06 in 0 W/m2
05:05 40.6 °F 40.1 °F 29.6 in Calm     98% 0.06 in 0 W/m2
05:10 40.6 °F 39.9 °F 29.6 in Calm     97% 0.05 in 0 W/m2
05:15 40.6 °F 39.9 °F 29.6 in Calm     97% 0.04 in 0 W/m2
05:20 40.8 °F 40.1 °F 29.6 in Calm     97% 0.04 in 0 W/m2
05:25 40.8 °F 40.3 °F 29.6 in East 0.9 mph 2 mph 98% 0.04 in 0 W/m2
05:30 41.2 °F 40.6 °F 29.6 in Calm     98% 0.04 in 0 W/m2
05:35 41.2 °F 40.5 °F 29.6 in Calm     97% 0.05 in 0 W/m2
05:40 41.4 °F 40.6 °F 29.6 in Calm     97% 0.06 in 0 W/m2
05:45 41.4 °F 40.6 °F 29.6 in Calm     97% 0.06 in 0 W/m2
05:50 41.4 °F 40.6 °F 29.6 in Calm     97% 0.07 in 0 W/m2
05:55 41.4 °F 40.6 °F 29.6 in Calm     97% 0.07 in 0 W/m2
06:01 41.4 °F 40.6 °F 29.6 in Calm     97% 0.08 in 0 W/m2
06:06 41.4 °F 40.6 °F 29.6 in Calm     97% 0.08 in 0 W/m2
06:11 41.5 °F 41 °F 29.6 in Calm     98% 0.08 in 0 W/m2
06:16 41.5 °F 41 °F 29.6 in Calm     98% 0.08 in 0 W/m2
06:21 41.7 °F 41.2 °F 29.6 in Calm     98% 0.08 in 0 W/m2
06:26 41.9 °F 41.4 °F 29.6 in Calm     98% 0.07 in 0 W/m2
06:31 41.9 °F 41.4 °F 29.6 in Calm     98% 0.06 in 0 W/m2
06:36 41.9 °F 41.4 °F 29.6 in Calm     98% 0.04 in 0 W/m2
06:41 41.9 °F 41.4 °F 29.6 in Calm     98% 0.03 in 0 W/m2
06:46 42.1 °F 41.5 °F 29.6 in Calm     98% 0.02 in 0 W/m2
06:51 42.1 °F 41.5 °F 29.6 in Calm     98% 0.02 in 0 W/m2
06:56 42.3 °F 41.7 °F 29.6 in Calm     98% 0.01 in 0 W/m2
07:01 42.3 °F 41.7 °F 29.6 in Calm     98% 0 in 0 W/m2
07:06 42.3 °F 41.7 °F 29.6 in Calm     98% 0 in 0 W/m2
07:11 42.3 °F 41.7 °F 29.6 in Calm     98% 0 in 0 W/m2
07:16 42.4 °F 41.9 °F 29.6 in Calm     98% 0 in 0 W/m2
07:21 42.6 °F 42.1 °F 29.6 in Calm     98% 0 in 0 W/m2
07:26 43.2 °F 42.6 °F 29.6 in East 2.9 mph 3 mph 98% 0 in 0 W/m2
07:31 43.9 °F 43.3 °F 29.6 in ESE 2 mph 4 mph 98% 0 in 0 W/m2
07:36 44.6 °F 44.1 °F 29.6 in East 2.9 mph 3 mph 98% 0 in 0 W/m2
07:41 44.8 °F 44.2 °F 29.6 in East 2.9 mph 4 mph 98% 0 in 0 W/m2
07:46 45 °F 44.4 °F 29.6 in ENE 2.9 mph 5 mph 98% 0 in 0 W/m2
07:51 45.1 °F 44.6 °F 29.6 in East 2.9 mph 4 mph 98% 0 in 0 W/m2
07:56 45.1 °F 44.6 °F 29.6 in East 2 mph 5 mph 98% 0 in 0 W/m2
08:01 45.1 °F 44.6 °F 29.6 in ENE 2.9 mph 4 mph 98% 0 in 0 W/m2
08:06 45.1 °F 44.6 °F 29.6 in NE 2.9 mph 4 mph 98% 0 in 0 W/m2
08:11 45.3 °F 44.8 °F 29.6 in ENE 0.9 mph 2 mph 98% 0 in 0 W/m2
08:16 45.3 °F 44.8 °F 29.6 in NE 2 mph 2 mph 98% 0 in 0 W/m2
08:21 45.1 °F 44.6 °F 29.6 in East 0.9 mph 2 mph 98% 0 in 0 W/m2
08:26 45.1 °F 44.6 °F 29.6 in Calm   2 mph 98% 0 in 0 W/m2
08:31 45.1 °F 44.6 °F 29.6 in Calm     98% 0 in 0 W/m2
08:36 45.1 °F 44.6 °F 29.6 in Calm     98% 0 in 0 W/m2
08:41 45.1 °F 44.6 °F 29.6 in ENE 0.9 mph 2 mph 98% 0 in 5 W/m2
08:46 45.1 °F 44.6 °F 29.5 in Calm   2 mph 98% 0 in 5 W/m2
08:51 45.1 °F 44.6 °F 29.5 in Calm     98% 0.01 in 7 W/m2
08:56 45.1 °F 44.6 °F 29.5 in Calm     98% 0.01 in 9 W/m2
09:01 45.1 °F 44.6 °F 29.5 in East 2 mph 3 mph 98% 0.01 in 9 W/m2
09:06 45.1 °F 44.6 °F 29.5 in ENE 0.9 mph 3 mph 98% 0.01 in 16 W/m2
09:11 45.3 °F 44.8 °F 29.5 in ENE 0.9 mph 3 mph 98% 0.01 in 25 W/m2
09:16 45.3 °F 44.8 °F 29.5 in East 2.9 mph 4 mph 98% 0.01 in 14 W/m2
09:21 45.3 °F 44.8 °F 29.5 in NE 0.9 mph 1 mph 98% 0.01 in 16 W/m2
09:26 45.5 °F 45 °F 29.5 in ENE 0.9 mph 3 mph 98% 0.01 in 33 W/m2
09:31 45.7 °F 45.1 °F 29.5 in East 2 mph 3 mph 98% 0.01 in 86 W/m2
09:36 45.7 °F 45.1 °F 29.5 in East 2.9 mph 4 mph 98% 0.01 in 46 W/m2
09:41 45.9 °F 45.3 °F 29.5 in NE 0.9 mph 3 mph 98% 0.01 in 35 W/m2
09:46 45.7 °F 45.1 °F 29.5 in NE 0.9 mph 2 mph 98% 0.01 in 40 W/m2
09:51 45.9 °F 45.3 °F 29.5 in Calm   2 mph 98% 0 in 33 W/m2
09:56 45.9 °F 45.3 °F 29.5 in Calm   3 mph 98% 0 in 32 W/m2
10:01 45.9 °F 45.3 °F 29.5 in Calm   3 mph 98% 0 in 40 W/m2
10:06 45.9 °F 45.3 °F 29.5 in ENE 0.9 mph 2 mph 98% 0 in 44 W/m2
10:11 45.9 °F 45.3 °F 29.5 in Calm   2 mph 98% 0 in 54 W/m2
10:16 45.9 °F 45.3 °F 29.5 in ENE 2 mph 2 mph 98% 0 in 53 W/m2
10:21 45.9 °F 45.3 °F 29.5 in Calm   2 mph 98% 0 in 44 W/m2
10:26 45.9 °F 45.3 °F 29.5 in ENE 0.9 mph 2 mph 98% 0 in 47 W/m2
10:31 45.9 °F 45.3 °F 29.5 in East 2 mph 2 mph 98% 0 in 49 W/m2
10:36 45.9 °F 45.3 °F 29.5 in ESE 2 mph 4 mph 98% 0 in 39 W/m2
10:41 45.9 °F 45.3 °F 29.5 in East 2 mph 3 mph 98% 0 in 39 W/m2
10:46 45.9 °F 45.3 °F 29.5 in ESE 0.9 mph 3 mph 98% 0 in 44 W/m2
10:51 45.9 °F 45.3 °F 29.5 in ESE 2.9 mph 3 mph 98% 0 in 65 W/m2
10:56 45.7 °F 45.1 °F 29.5 in Calm   3 mph 98% 0 in 49 W/m2
11:01 45.7 °F 45.1 °F 29.5 in East 2 mph 2 mph 98% 0 in 42 W/m2
11:06 45.7 °F 45.1 °F 29.5 in ESE 2 mph 4 mph 98% 0 in 40 W/m2
11:11 45.9 °F 45.3 °F 29.5 in Calm   1 mph 98% 0 in 30 W/m2
11:16 45.9 °F 45.3 °F 29.5 in Calm   4 mph 98% 0 in 26 W/m2
11:21 45.9 °F 45.3 °F 29.5 in NE 2 mph 3 mph 98% 0 in 33 W/m2
11:26 45.9 °F 45.3 °F 29.5 in East 2.9 mph 6 mph 98% 0 in 42 W/m2
11:31 45.7 °F 45.1 °F 29.5 in ENE 4 mph 5 mph 98% 0 in 47 W/m2
11:36 45.7 °F 45.1 °F 29.5 in East 4 mph 6 mph 98% 0 in 63 W/m2
11:41 45.7 °F 45.1 °F 29.5 in NE 2 mph 10 mph 98% 0 in 83 W/m2
11:46 45.7 °F 45.1 °F 29.5 in ESE 2.9 mph 4 mph 98% 0 in 90 W/m2
11:51 45.9 °F 45.3 °F 29.5 in ENE 2 mph 4 mph 98% 0 in 93 W/m2
11:56 45.9 °F 45.1 °F 29.5 in ESE 2 mph 8 mph 97% 0 in 84 W/m2
12:01 46 °F 45.3 °F 29.5 in ESE 2 mph 2 mph 97% 0 in 83 W/m2
12:06 46 °F 45.3 °F 29.5 in East 2.9 mph 8 mph 97% 0 in 69 W/m2
12:11 46 °F 45.5 °F 29.5 in SE 2.9 mph 3 mph 98% 0 in 72 W/m2
12:16 46 °F 45.3 °F 29.5 in East 0.9 mph 2 mph 97% 0 in 72 W/m2
12:21 46 °F 45.3 °F 29.5 in East 2.9 mph 4 mph 97% 0 in 77 W/m2
12:26 46 °F 45.3 °F 29.5 in East 2 mph 3 mph 97% 0 in 84 W/m2
12:31 46.2 °F 45.5 °F 29.5 in East 2 mph 3 mph 97% 0 in 88 W/m2
12:36 46.2 °F 45.5 °F 29.5 in East 2 mph 4 mph 97% 0 in 84 W/m2
12:41 46.2 °F 45.5 °F 29.5 in ENE 2.9 mph 4 mph 97% 0 in 77 W/m2
12:47 46.2 °F 45.5 °F 29.5 in ENE 0.9 mph 2 mph 97% 0 in 72 W/m2
12:52 46.4 °F 45.7 °F 29.5 in ESE 2.9 mph 4 mph 97% 0 in 63 W/m2
12:57 46.6 °F 45.9 °F 29.5 in East 0.9 mph 6 mph 97% 0 in 63 W/m2
14:36 46.9 °F 45.9 °F 29.5 in Calm   1 mph 96% 0 in 79 W/m2
14:41 47.1 °F 46 °F 29.5 in Calm     96% 0 in 72 W/m2
14:46 47.1 °F 46 °F 29.5 in Calm     96% 0 in 51 W/m2
14:51 47.1 °F 46 °F 29.5 in ENE 2 mph 2 mph 96% 0 in 49 W/m2
14:56 47.1 °F 46 °F 29.5 in East 2 mph 4 mph 96% 0 in 44 W/m2
15:01 47.1 °F 46 °F 29.5 in ESE 4 mph 7 mph 96% 0 in 42 W/m2
15:06 47.1 °F 46 °F 29.5 in ENE 2 mph 4 mph 96% 0 in 37 W/m2
15:11 47.1 °F 46 °F 29.5 in ENE 2.9 mph 7 mph 96% 0 in 37 W/m2
15:16 47.1 °F 46 °F 29.5 in Calm   5 mph 96% 0 in 32 W/m2
15:21 47.1 °F 45.7 °F 29.5 in East 2.9 mph 6 mph 95% 0 in 35 W/m2
15:26 47.1 °F 45.7 °F 29.5 in East 4 mph 10 mph 95% 0 in 30 W/m2
15:31 47.1 °F 45.7 °F 29.5 in Calm   2 mph 95% 0.01 in 26 W/m2
15:36 47.1 °F 45.7 °F 29.5 in ENE 4.9 mph 10 mph 95% 0.01 in 28 W/m2
15:41 47.1 °F 45.7 °F 29.5 in ESE 2.9 mph 7 mph 95% 0.01 in 26 W/m2
15:46 47.1 °F 45.7 °F 29.5 in ENE 2 mph 8 mph 95% 0.01 in 21 W/m2
15:51 47.1 °F 45.7 °F 29.5 in ENE 2 mph 3 mph 95% 0.01 in 16 W/m2
15:56 47.1 °F 45.5 °F 29.5 in East 2 mph 4 mph 94% 0.01 in 16 W/m2
16:01 46.9 °F 45.5 °F 29.5 in ENE 4 mph 4 mph 95% 0.01 in 16 W/m2
16:06 46.9 °F 45.5 °F 29.5 in ENE 0.9 mph 4 mph 95% 0.01 in 9 W/m2
16:11 46.9 °F 45.5 °F 29.5 in ENE 2 mph 4 mph 95% 0.01 in 9 W/m2
16:16 46.9 °F 45.5 °F 29.5 in ESE 0.9 mph 4 mph 95% 0.01 in 11 W/m2
16:21 46.9 °F 45.5 °F 29.5 in Calm   4 mph 95% 0.01 in 9 W/m2
16:26 46.9 °F 45.5 °F 29.5 in ENE 2.9 mph 3 mph 95% 0.01 in 5 W/m2
16:31 46.8 °F 45.1 °F 29.5 in East 0.9 mph 4 mph 94% 0 in 0 W/m2
16:36 46.6 °F 45 °F 29.5 in ENE 2.9 mph 4 mph 94% 0 in 0 W/m2
16:41 46.6 °F 45.1 °F 29.5 in ESE 2.9 mph 6 mph 95% 0 in 0 W/m2
16:46 46.4 °F 45 °F 29.5 in East 0.9 mph 2 mph 95% 0 in 0 W/m2
16:51 46.2 °F 44.8 °F 29.5 in East 4 mph 4 mph 95% 0.01 in 0 W/m2
16:56 46 °F 44.6 °F 29.5 in ESE 0.9 mph 2 mph 95% 0.01 in 0 W/m2
17:01 46 °F 44.6 °F 29.5 in ENE 2 mph 3 mph 95% 0.01 in 0 W/m2
17:06 46 °F 44.6 °F 29.5 in ENE 2.9 mph 5 mph 95% 0.02 in 0 W/m2
17:11 45.9 °F 44.4 °F 29.5 in Calm   2 mph 95% 0.02 in 0 W/m2
17:16 45.9 °F 44.4 °F 29.5 in ENE 0.9 mph 5 mph 95% 0.02 in 0 W/m2
17:21 45.9 °F 44.4 °F 29.5 in Calm   2 mph 95% 0.02 in 0 W/m2
17:26 45.9 °F 44.8 °F 29.5 in Calm     96% 0.02 in 0 W/m2
17:31 45.7 °F 44.6 °F 29.5 in ENE 0.9 mph 3 mph 96% 0.02 in 0 W/m2
17:36 45.7 °F 44.6 °F 29.5 in ENE 0.9 mph 3 mph 96% 0.02 in 0 W/m2
17:41 45.7 °F 44.6 °F 29.5 in East 2 mph 3 mph 96% 0.02 in 0 W/m2
17:46 45.7 °F 44.6 °F 29.5 in ENE 2 mph 3 mph 96% 0.02 in 0 W/m2
17:51 45.7 °F 44.6 °F 29.5 in ESE 0.9 mph 2 mph 96% 0.01 in 0 W/m2
17:56 45.7 °F 44.6 °F 29.5 in ENE 2.9 mph 5 mph 96% 0.01 in 0 W/m2
18:01 45.7 °F 44.6 °F 29.5 in NNE 2 mph 3 mph 96% 0.02 in 0 W/m2
18:06 45.9 °F 44.8 °F 29.5 in ENE 2 mph 5 mph 96% 0.01 in 0 W/m2
18:12 45.9 °F 44.8 °F 29.5 in NNE 0.9 mph 1 mph 96% 0.01 in 0 W/m2
18:17 45.9 °F 44.8 °F 29.5 in NW 2 mph 2 mph 96% 0.01 in 0 W/m2
18:22 46 °F 45 °F 29.5 in NW 2.9 mph 3 mph 96% 0.01 in 0 W/m2
18:27 46 °F 45 °F 29.5 in WSW 2.9 mph 5 mph 96% 0.01 in 0 W/m2
18:32 46.2 °F 45.1 °F 29.5 in West 0.9 mph 4 mph 96% 0.01 in 0 W/m2
18:37 46.2 °F 45.1 °F 29.5 in West 0.9 mph 5 mph 96% 0.01 in 0 W/m2
18:42 46.4 °F 45.3 °F 29.5 in WNW 0.9 mph 3 mph 96% 0.01 in 0 W/m2
18:47 46.4 °F 45.3 °F 29.5 in Calm   1 mph 96% 0.01 in 0 W/m2
18:52 46.6 °F 45.5 °F 29.5 in North 2 mph 4 mph 96% 0.01 in 0 W/m2
18:57 46.6 °F 45.5 °F 29.5 in WSW 0.9 mph 3 mph 96% 0 in 0 W/m2
19:02 46.8 °F 45.7 °F 29.5 in NNW 0.9 mph 3 mph 96% 0 in 0 W/m2
19:07 46.8 °F 45.7 °F 29.5 in Calm   3 mph 96% 0 in 0 W/m2
19:12 46.8 °F 45.7 °F 29.5 in West 2 mph 3 mph 96% 0 in 0 W/m2
19:17 46.8 °F 45.7 °F 29.5 in SW 0.9 mph 3 mph 96% 0 in 0 W/m2
19:22 46.9 °F 45.9 °F 29.5 in WNW 2.9 mph 4 mph 96% 0 in 0 W/m2
19:27 46.9 °F 45.9 °F 29.5 in NW 0.9 mph 3 mph 96% 0 in 0 W/m2
19:32 47.1 °F 46 °F 29.5 in NW 2.9 mph 8 mph 96% 0 in 0 W/m2
19:37 47.3 °F 46.2 °F 29.5 in West 0.9 mph 4 mph 96% 0 in 0 W/m2
19:42 47.5 °F 46.4 °F 29.5 in NNW 0.9 mph 8 mph 96% 0 in 0 W/m2
19:47 47.5 °F 46.4 °F 29.5 in WNW 2 mph 6 mph 96% 0 in 0 W/m2
19:52 47.7 °F 46.6 °F 29.5 in WNW 0.9 mph 3 mph 96% 0 in 0 W/m2
19:57 47.7 °F 46.6 °F 29.5 in NW 2 mph 6 mph 96% 0 in 0 W/m2
20:02 47.7 °F 46.6 °F 29.5 in NNW 0.9 mph 3 mph 96% 0 in 0 W/m2
20:07 47.8 °F 46.8 °F 29.5 in WNW 0.9 mph 2 mph 96% 0 in 0 W/m2
20:12 47.8 °F 46.8 °F 29.5 in WSW 0.9 mph 1 mph 96% 0 in 0 W/m2
20:17 47.8 °F 46.8 °F 29.5 in West 0.9 mph 6 mph 96% 0 in 0 W/m2
20:22 48 °F 46.9 °F 29.5 in SW 0.9 mph 3 mph 96% 0 in 0 W/m2
20:27 48 °F 46.6 °F 29.5 in North 2 mph 3 mph 95% 0 in 0 W/m2
20:32 48.2 °F 46.8 °F 29.5 in Calm   4 mph 95% 0 in 0 W/m2
20:37 48.4 °F 46.9 °F 29.5 in Calm   4 mph 95% 0 in 0 W/m2
20:42 48.4 °F 46.9 °F 29.5 in North 0.9 mph 2 mph 95% 0 in 0 W/m2
20:47 48.6 °F 47.1 °F 29.5 in WNW 2 mph 8 mph 95% 0 in 0 W/m2
20:52 48.6 °F 47.1 °F 29.5 in Calm   2 mph 95% 0 in 0 W/m2
20:57 48.6 °F 47.1 °F 29.5 in North 2.9 mph 5 mph 95% 0 in 0 W/m2
21:02 48.6 °F 47.1 °F 29.5 in North 0.9 mph 3 mph 95% 0 in 0 W/m2
21:07 48.6 °F 47.1 °F 29.5 in NNE 2 mph 6 mph 95% 0 in 0 W/m2
21:12 48.6 °F 47.1 °F 29.5 in NW 2 mph 3 mph 95% 0 in 0 W/m2
21:17 48.7 °F 47.3 °F 29.5 in ENE 4 mph 7 mph 95% 0 in 0 W/m2
21:22 48.7 °F 47.3 °F 29.5 in NW 2 mph 4 mph 95% 0 in 0 W/m2
21:27 48.7 °F 47.3 °F 29.5 in SSW 2 mph 3 mph 95% 0 in 0 W/m2
21:32 48.7 °F 47.1 °F 29.5 in Calm   3 mph 94% 0 in 0 W/m2
21:37 48.7 °F 47.1 °F 29.5 in Calm   2 mph 94% 0 in 0 W/m2
21:42 48.7 °F 47.1 °F 29.5 in North 2.9 mph 4 mph 94% 0 in 0 W/m2
21:47 48.7 °F 47.1 °F 29.5 in Calm   3 mph 94% 0 in 0 W/m2
21:52 48.7 °F 47.1 °F 29.5 in Calm   2 mph 94% 0 in 0 W/m2
21:57 48.6 °F 46.9 °F 29.5 in NNE 0.9 mph 3 mph 94% 0 in 0 W/m2
22:02 48.6 °F 46.9 °F 29.5 in NNW 0.9 mph 3 mph 94% 0 in 0 W/m2
22:07 48.4 °F 46.8 °F 29.5 in Calm   3 mph 94% 0 in 0 W/m2
22:12 48.4 °F 46.8 °F 29.5 in NW 0.9 mph 3 mph 94% 0 in 0 W/m2
22:17 48.2 °F 46.6 °F 29.5 in Calm   5 mph 94% 0 in 0 W/m2
22:22 48 °F 46.4 °F 29.5 in Calm   5 mph 94% 0 in 0 W/m2
22:27 48 °F 46.4 °F 29.5 in NNW 4 mph 4 mph 94% 0 in 0 W/m2
22:32 48 °F 46.4 °F 29.5 in NNE 2 mph 5 mph 94% 0 in 0 W/m2
22:37 48 °F 46.4 °F 29.5 in NW 4.9 mph 8 mph 94% 0 in 0 W/m2
22:42 48 °F 46.4 °F 29.5 in NW 2 mph 3 mph 94% 0 in 0 W/m2
22:47 48 °F 46.4 °F 29.5 in NW 2 mph 7 mph 94% 0 in 0 W/m2
22:52 48 °F 46.4 °F 29.5 in North 0.9 mph 5 mph 94% 0 in 0 W/m2
22:57 48.2 °F 46.6 °F 29.5 in NNW 2 mph 7 mph 94% 0 in 0 W/m2
23:02 48.4 °F 46.8 °F 29.5 in NW 2 mph 8 mph 94% 0 in 0 W/m2
23:07 48.6 °F 46.9 °F 29.5 in Calm   6 mph 94% 0 in 0 W/m2
23:12 48.6 °F 46.6 °F 29.5 in Calm   8 mph 93% 0 in 0 W/m2
23:17 48.6 °F 46.6 °F 29.5 in WNW 0.9 mph 2 mph 93% 0 in 0 W/m2
23:22 48.6 °F 46.6 °F 29.5 in WNW 2 mph 7 mph 93% 0 in 0 W/m2
23:27 48.6 °F 46.6 °F 29.5 in West 2 mph 4 mph 93% 0 in 0 W/m2
23:32 48.6 °F 46.6 °F 29.5 in NNW 2.9 mph 5 mph 93% 0 in 0 W/m2
23:37 48.6 °F 46.6 °F 29.5 in Calm   8 mph 93% 0 in 0 W/m2
23:42 48.6 °F 46.6 °F 29.5 in SW 0.9 mph 8 mph 93% 0 in 0 W/m2
23:47 48.6 °F 46.6 °F 29.5 in NNE 0.9 mph 3 mph 93% 0 in 0 W/m2
23:52 48.6 °F 46.6 °F 29.5 in WNW 4.9 mph 8 mph 93% 0 in 0 W/m2
23:57 48.6 °F 46.6 °F 29.5 in Calm   4 mph 93% 0 in 0 W/m2
Juneau County Weather
Compliments of Weather Underground - 4 mb